Time;durP1;ratioP1;P1;durP2;ratioP2;P2;SDS_P1;SDS_P2;PMS_P1;PMS_P2;Temp;Humidity;BMP_temperature;BMP_pressure;BME280_temperature;BME280_humidity;BME280_pressure;Samples;Min_cycle;Max_cycle;Signal;HPM_P1;HPM_P2
2023/03/09 00:01:21;;;;;;;17.80;8.45;;;;;;;0.45;100.00;99405.09;5037397;28;20036;-74
2023/03/09 00:03:47;;;;;;;18.02;8.05;;;;;;;0.43;100.00;99402.53;5033270;28;20044;-74
2023/03/09 00:06:13;;;;;;;18.90;8.30;;;;;;;0.40;100.00;99398.25;5054696;28;20102;-74
2023/03/09 00:08:38;;;;;;;18.77;8.75;;;;;;;0.38;100.00;99405.25;5039586;28;20025;-74
2023/03/09 00:11:05;;;;;;;16.88;8.25;;;;;;;0.37;100.00;99418.31;5032073;28;20116;-74
2023/03/09 00:13:31;;;;;;;20.25;8.75;;;;;;;0.34;100.00;99410.59;5053461;28;20034;-75
2023/03/09 00:15:56;;;;;;;18.65;7.63;;;;;;;0.33;100.00;99416.72;5053500;28;20028;-74
2023/03/09 00:18:23;;;;;;;21.45;8.50;;;;;;;0.31;100.00;99413.25;5041495;28;20106;-74
2023/03/09 00:20:48;;;;;;;17.60;8.07;;;;;;;0.29;100.00;99415.06;5051858;28;20039;-74
2023/03/09 00:23:18;;;;;;;21.55;9.07;;;;;;;0.29;100.00;99417.66;5021186;28;20036;-74
2023/03/09 00:25:44;;;;;;;17.45;8.00;;;;;;;0.26;100.00;99426.41;5037874;28;20101;-74
2023/03/09 00:28:10;;;;;;;17.98;8.63;;;;;;;0.25;100.00;99416.91;5052085;28;20169;-74
2023/03/09 00:30:36;;;;;;;19.17;8.43;;;;;;;0.23;100.00;99423.91;5034065;28;20060;-74
2023/03/09 00:33:02;;;;;;;21.73;9.43;;;;;;;0.20;100.00;99422.22;5050548;28;20031;-74
2023/03/09 00:35:27;;;;;;;23.17;9.90;;;;;;;0.21;100.00;99420.50;5053434;28;20544;-74
2023/03/09 00:37:53;;;;;;;20.50;8.40;;;;;;;0.18;100.00;99418.81;5055059;28;20037;-74
2023/03/09 00:40:19;;;;;;;20.00;8.73;;;;;;;0.15;100.00;99418.03;5021944;28;20036;-74
2023/03/09 00:42:45;;;;;;;17.70;8.13;;;;;;;0.12;100.00;99421.56;5030361;28;20047;-74
2023/03/09 00:45:12;;;;;;;18.02;8.13;;;;;;;0.08;100.00;99422.53;5038453;28;20032;-74
2023/03/09 00:47:38;;;;;;;20.20;7.68;;;;;;;0.04;100.00;99416.53;5052381;28;20043;-74
2023/03/09 00:50:06;;;;;;;18.50;7.85;;;;;;;0.02;100.00;99420.94;5038259;28;20657;-74
2023/03/09 00:52:32;;;;;;;22.42;7.53;;;;;;;-0.04;100.00;99408.91;5051494;28;20036;-74
2023/03/09 00:54:57;;;;;;;18.75;8.13;;;;;;;-0.06;100.00;99415.09;5033718;28;20044;-74
2023/03/09 00:57:24;;;;;;;15.88;7.70;;;;;;;-0.07;100.00;99411.59;5037723;28;20047;-74
2023/03/09 00:59:51;;;;;;;15.82;7.28;;;;;;;-0.10;100.00;99408.22;5053060;28;20081;-74
2023/03/09 01:02:21;;;;;;;13.45;6.22;;;;;;;-0.12;100.00;99399.63;5050634;28;21465;-74
2023/03/09 01:04:48;;;;;;;16.20;7.47;;;;;;;-0.17;100.00;99400.56;5033292;28;20039;-74
2023/03/09 01:07:13;;;;;;;14.27;6.93;;;;;;;-0.21;100.00;99398.91;5034969;28;20101;-74
2023/03/09 01:09:39;;;;;;;17.33;7.07;;;;;;;-0.24;100.00;99396.41;5052653;28;20486;-74
2023/03/09 01:12:06;;;;;;;16.02;7.63;;;;;;;-0.27;100.00;99401.69;5031965;28;20033;-74
2023/03/09 01:14:32;;;;;;;15.88;7.00;;;;;;;-0.30;100.00;99402.63;5033880;28;20028;-74
2023/03/09 01:16:58;;;;;;;15.20;6.82;;;;;;;-0.31;100.00;99403.53;5034201;28;20047;-74
2023/03/09 01:19:24;;;;;;;17.90;7.47;;;;;;;-0.33;100.00;99396.63;5051334;28;20036;-74
2023/03/09 01:21:49;;;;;;;15.95;7.07;;;;;;;-0.37;100.00;99388.06;5033779;28;20036;-74
2023/03/09 01:24:15;;;;;;;18.17;7.53;;;;;;;-0.39;100.00;99386.38;5052391;28;20024;-74
2023/03/09 01:26:40;;;;;;;15.40;7.00;;;;;;;-0.41;100.00;99383.81;5035040;28;20241;-74
2023/03/09 01:29:06;;;;;;;17.23;7.70;;;;;;;-0.42;100.00;99390.75;5052346;28;20514;-74
2023/03/09 01:31:32;;;;;;;17.85;7.65;;;;;;;-0.43;100.00;99390.78;5034245;28;20034;-74
2023/03/09 01:33:57;;;;;;;14.43;7.03;;;;;;;-0.43;100.00;99390.78;5048132;28;20035;-74
2023/03/09 01:36:23;;;;;;;17.65;7.55;;;;;;;-0.44;100.00;99395.13;5033458;28;20043;-74
2023/03/09 01:38:49;;;;;;;14.65;6.88;;;;;;;-0.45;100.00;99392.56;5035888;28;20044;-75
2023/03/09 01:41:16;;;;;;;17.65;6.43;;;;;;;-0.47;100.00;99400.41;5050158;28;20048;-74
2023/03/09 01:43:46;;;;;;;15.32;6.60;;;;;;;-0.49;100.00;99407.38;5049738;28;20079;-74
2023/03/09 01:46:50;;;;;;;15.10;6.40;;;;;;;-0.50;100.00;99405.66;5031796;28;20083;-74
2023/03/09 01:49:15;;;;;;;;;;;;;;;-0.51;100.00;99408.28;5052831;28;20036;-74
2023/03/09 01:52:01;;;;;;;11.10;6.20;;;;;;;-0.50;100.00;99416.06;5037809;28;19927;-74
2023/03/09 01:54:35;;;;;;;14.10;6.03;;;;;;;-0.51;100.00;99418.69;5051068;28;20445;-74
2023/03/09 01:57:28;;;;;;;14.10;6.72;;;;;;;-0.50;100.00;99426.47;5021138;28;20047;-74
2023/03/09 01:59:57;;;;;;;14.43;7.05;;;;;;;-0.50;100.00;99431.69;5023437;28;20736;-74
2023/03/09 02:02:25;;;;;;;16.65;7.15;;;;;;;-0.49;100.00;99433.38;5021912;28;20315;-74
2023/03/09 02:04:54;;;;;;;16.88;6.95;;;;;;;-0.50;100.00;99436.88;5008842;28;20139;-74
2023/03/09 02:07:22;;;;;;;12.73;6.13;;;;;;;-0.46;100.00;99435.94;5034913;28;20692;-75
2023/03/09 02:10:19;;;;;;;15.30;6.75;;;;;;;-0.42;100.00;99445.34;5033714;28;20600;-74
2023/03/09 02:12:52;;;;;;;14.48;6.28;;;;;;;-0.43;100.00;99438.44;5043984;28;20052;-75
2023/03/09 02:15:18;;;;;;;15.88;6.43;;;;;;;-0.44;100.00;99454.94;5032261;28;20032;-74
2023/03/09 02:17:44;;;;;;;18.80;7.47;;;;;;;-0.46;100.00;99448.94;5052105;28;20036;-74
2023/03/09 02:20:12;;;;;;;16.65;6.95;;;;;;;-0.49;100.00;99446.38;5034194;28;20112;-74
2023/03/09 02:22:39;;;;;;;14.70;6.55;;;;;;;-0.51;100.00;99445.56;5048746;28;20432;-74
2023/03/09 02:25:16;;;;;;;14.20;6.22;;;;;;;-0.53;100.00;99449.09;5034364;28;20045;-74
2023/03/09 02:27:41;;;;;;;13.88;5.93;;;;;;;-0.56;100.00;99447.41;5030141;28;20040;-74
2023/03/09 02:30:08;;;;;;;13.35;6.32;;;;;;;-0.59;100.00;99457.88;5027277;28;20507;-74
2023/03/09 02:32:33;;;;;;;14.35;6.30;;;;;;;-0.62;100.00;99457.94;5032877;28;20101;-74
2023/03/09 02:34:59;;;;;;;14.68;6.72;;;;;;;-0.64;100.00;99465.78;5030133;28;20047;-74
2023/03/09 02:37:29;;;;;;;16.80;6.78;;;;;;;-0.63;100.00;99466.63;5028950;28;20096;-75
2023/03/09 02:39:56;;;;;;;14.55;6.70;;;;;;;-0.65;100.00;99461.47;5027386;28;20516;-74
2023/03/09 02:42:23;;;;;;;13.05;5.80;;;;;;;-0.64;100.00;99464.91;5031618;28;20654;-74
2023/03/09 02:44:48;;;;;;;14.38;5.97;;;;;;;-0.67;100.00;99460.63;5031699;28;20029;-74
2023/03/09 02:47:18;;;;;;;13.45;6.43;;;;;;;-0.65;100.00;99471.03;5041598;28;20040;-74
2023/03/09 02:49:43;;;;;;;15.02;6.18;;;;;;;-0.64;100.00;99472.72;5024124;28;21532;-74
2023/03/09 02:52:09;;;;;;;16.75;6.25;;;;;;;-0.64;100.00;99473.59;5025977;28;20039;-74
2023/03/09 02:54:35;;;;;;;17.05;6.70;;;;;;;-0.62;100.00;99478.72;5027744;28;20036;-74
2023/03/09 02:57:00;;;;;;;14.18;6.30;;;;;;;-0.61;100.00;99472.69;5030573;28;20641;-74
2023/03/09 02:59:26;;;;;;;13.85;6.35;;;;;;;-0.59;100.00;99473.50;5027563;28;20033;-74
2023/03/09 03:01:51;;;;;;;11.23;5.75;;;;;;;-0.56;100.00;99473.41;5030768;28;20036;-74
2023/03/09 03:04:17;;;;;;;17.92;7.53;;;;;;;-0.54;100.00;99476.84;5029975;28;20685;-74
2023/03/09 03:06:42;;;;;;;15.70;6.75;;;;;;;-0.53;100.00;99467.28;5016048;28;20493;-74
2023/03/09 03:09:08;;;;;;;12.80;6.20;;;;;;;-0.54;100.00;99476.84;5029200;28;20686;-74
2023/03/09 03:11:33;;;;;;;15.48;5.80;;;;;;;-0.56;100.00;99476.88;5027111;28;20052;-74
2023/03/09 03:13:59;;;;;;;13.23;6.38;;;;;;;-0.56;100.00;99473.41;5027465;28;20098;-74
2023/03/09 03:16:25;;;;;;;15.38;6.82;;;;;;;-0.55;100.00;99486.38;5030260;28;20079;-74
2023/03/09 03:18:50;;;;;;;14.35;5.93;;;;;;;-0.54;100.00;99487.25;5028414;28;20099;-74
2023/03/09 03:21:17;;;;;;;16.08;7.05;;;;;;;-0.55;100.00;99488.13;5028282;28;20045;-74
2023/03/09 03:23:43;;;;;;;16.80;6.70;;;;;;;-0.54;100.00;99492.44;5029811;28;20029;-74
2023/03/09 03:26:09;;;;;;;16.58;6.85;;;;;;;-0.53;100.00;99482.88;5026590;28;20373;-74
2023/03/09 03:28:35;;;;;;;15.82;7.05;;;;;;;-0.53;100.00;99482.88;5013978;28;20549;-74
2023/03/09 03:31:01;;;;;;;14.93;6.45;;;;;;;-0.53;100.00;99488.97;5038215;28;20037;-74
2023/03/09 03:33:27;;;;;;;17.75;7.13;;;;;;;-0.50;100.00;99499.28;5024180;28;20151;-74
2023/03/09 03:35:52;;;;;;;15.00;7.25;;;;;;;-0.49;100.00;99500.16;5016373;28;20480;-74
2023/03/09 03:38:18;;;;;;;13.13;6.55;;;;;;;-0.46;100.00;99511.34;5025745;28;20115;-74
2023/03/09 03:40:43;;;;;;;17.27;7.18;;;;;;;-0.43;100.00;99511.25;5024254;28;20284;-74
2023/03/09 03:43:09;;;;;;;17.23;7.55;;;;;;;-0.40;100.00;99515.53;5028934;28;20167;-74
2023/03/09 03:45:34;;;;;;;15.13;6.82;;;;;;;-0.38;100.00;99513.75;5030657;28;20113;-74
2023/03/09 03:48:00;;;;;;;19.90;8.10;;;;;;;-0.36;100.00;99516.34;5040106;28;20032;-74
2023/03/09 03:50:25;;;;;;;15.90;7.68;;;;;;;-0.35;100.00;99520.66;5027218;28;21153;-74
2023/03/09 03:52:51;;;;;;;16.98;7.50;;;;;;;-0.32;100.00;99523.19;5032051;28;20480;-74
2023/03/09 03:55:16;;;;;;;16.52;7.20;;;;;;;-0.32;100.00;99531.00;5030075;28;20040;-74
2023/03/09 03:57:42;;;;;;;15.85;7.05;;;;;;;-0.32;100.00;99534.44;5013313;28;21208;-74
2023/03/09 04:00:11;;;;;;;21.67;7.45;;;;;;;-0.31;100.00;99535.31;5008498;28;21823;-74
2023/03/09 04:02:37;;;;;;;15.90;6.70;;;;;;;-0.32;100.00;99528.41;5027851;28;20060;-75
2023/03/09 04:05:04;;;;;;;18.63;7.45;;;;;;;-0.31;100.00;99530.09;5031992;28;20640;-74
2023/03/09 04:07:29;;;;;;;18.45;7.45;;;;;;;-0.32;100.00;99531.84;5034706;28;20037;-74
2023/03/09 04:09:55;;;;;;;19.23;6.90;;;;;;;-0.32;100.00;99529.25;5015358;28;20111;-74
2023/03/09 04:12:20;;;;;;;14.75;7.40;;;;;;;-0.32;100.00;99531.84;5030808;28;20029;-74
2023/03/09 04:14:46;;;;;;;16.80;7.28;;;;;;;-0.31;100.00;99527.50;5033720;28;20032;-74
2023/03/09 04:17:11;;;;;;;18.02;7.75;;;;;;;-0.31;100.00;99530.09;5035030;28;21514;-75
2023/03/09 04:19:37;;;;;;;15.25;6.97;;;;;;;-0.36;100.00;99522.41;5029810;28;20133;-75
2023/03/09 04:22:03;;;;;;;16.00;6.57;;;;;;;-0.36;100.00;99532.81;5029709;28;20047;-74
2023/03/09 04:24:28;;;;;;;14.68;6.50;;;;;;;-0.36;100.00;99547.56;5034004;28;20710;-74
2023/03/09 04:26:54;;;;;;;16.38;7.28;;;;;;;-0.37;100.00;99556.25;5033107;28;20047;-74
2023/03/09 04:29:20;;;;;;;18.42;7.00;;;;;;;-0.38;100.00;99572.75;5041664;28;20044;-75
2023/03/09 04:31:46;;;;;;;19.30;8.13;;;;;;;-0.38;100.00;99570.97;5052925;28;20033;-75
2023/03/09 04:34:12;;;;;;;16.30;7.10;;;;;;;-0.39;100.00;99558.03;5019707;28;20510;-75
2023/03/09 04:36:38;;;;;;;15.68;7.60;;;;;;;-0.38;100.00;99562.34;5018473;28;21092;-75
2023/03/09 04:39:06;;;;;;;20.08;8.38;;;;;;;-0.37;100.00;99571.84;5028934;28;20131;-75
2023/03/09 04:41:33;;;;;;;18.15;7.03;;;;;;;-0.38;100.00;99572.75;5025407;28;20455;-75
2023/03/09 04:43:58;;;;;;;16.42;8.05;;;;;;;-0.38;100.00;99575.34;5051398;28;20040;-75
2023/03/09 04:46:24;;;;;;;18.63;8.30;;;;;;;-0.38;100.00;99577.94;5037654;28;20082;-75
2023/03/09 04:48:49;;;;;;;22.42;9.10;;;;;;;-0.41;100.00;99571.06;5055066;28;20051;-75
2023/03/09 04:51:15;;;;;;;20.85;7.82;;;;;;;-0.40;100.00;99570.16;5033387;28;20119;-75
2023/03/09 04:53:41;;;;;;;19.33;7.20;;;;;;;-0.44;100.00;99564.16;5052167;28;20043;-75
2023/03/09 04:56:07;;;;;;;20.20;8.43;;;;;;;-0.43;100.00;99567.66;5051613;28;20587;-75
2023/03/09 04:58:32;;;;;;;22.42;8.90;;;;;;;-0.44;100.00;99579.78;5053666;28;20528;-75
2023/03/09 05:01:00;;;;;;;20.13;8.48;;;;;;;-0.43;100.00;99578.03;5049636;28;20036;-75
2023/03/09 05:03:26;;;;;;;20.80;8.73;;;;;;;-0.45;100.00;99572.88;5054692;28;20132;-75
2023/03/09 05:05:52;;;;;;;24.38;9.30;;;;;;;-0.46;100.00;99572.88;5034147;28;20041;-75
2023/03/09 05:08:18;;;;;;;20.73;7.90;;;;;;;-0.45;100.00;99577.19;5046898;28;20059;-74
2023/03/09 05:10:43;;;;;;;20.70;8.35;;;;;;;-0.49;100.00;99570.38;5030216;28;20044;-75
2023/03/09 05:13:09;;;;;;;22.02;8.65;;;;;;;-0.47;100.00;99574.66;5012539;28;20090;-75
2023/03/09 05:15:38;;;;;;;25.08;9.20;;;;;;;-0.49;100.00;99576.41;5052633;28;20510;-75
2023/03/09 05:18:04;;;;;;;21.98;9.02;;;;;;;-0.48;100.00;99580.72;5046647;28;20035;-75
2023/03/09 05:20:29;;;;;;;18.58;8.35;;;;;;;-0.48;100.00;99585.91;5044523;28;20040;-75
2023/03/09 05:22:55;;;;;;;22.60;9.50;;;;;;;-0.50;100.00;99592.06;5033906;28;20424;-75
2023/03/09 05:25:22;;;;;;;25.05;8.77;;;;;;;-0.49;100.00;99601.56;5035475;28;20743;-73
2023/03/09 05:27:48;;;;;;;23.52;9.07;;;;;;;-0.49;100.00;99605.00;5052533;28;20028;-74
2023/03/09 05:30:13;;;;;;;17.00;7.82;;;;;;;-0.50;100.00;99610.25;5039169;28;20512;-74
2023/03/09 05:32:39;;;;;;;21.95;7.95;;;;;;;-0.50;100.00;99618.91;5033045;28;20048;-74
2023/03/09 05:35:05;;;;;;;23.20;8.68;;;;;;;-0.50;100.00;99618.91;5034078;28;20539;-74
2023/03/09 05:37:33;;;;;;;25.25;8.50;;;;;;;-0.49;100.00;99617.19;5054369;28;20055;-75
2023/03/09 05:39:58;;;;;;;19.80;8.48;;;;;;;-0.50;100.00;99616.31;5049349;28;21313;-75
2023/03/09 05:42:24;;;;;;;19.80;7.75;;;;;;;-0.49;100.00;99620.63;5047330;28;20046;-74
2023/03/09 05:44:49;;;;;;;22.35;8.95;;;;;;;-0.47;100.00;99628.41;5052421;28;20036;-74
2023/03/09 05:47:15;;;;;;;21.60;8.93;;;;;;;-0.48;100.00;99631.88;5045646;28;20051;-74
2023/03/09 05:49:40;;;;;;;19.63;7.97;;;;;;;-0.48;100.00;99647.50;5033425;28;20681;-74
2023/03/09 05:52:06;;;;;;;21.65;8.93;;;;;;;-0.48;100.00;99637.09;5031335;28;20035;-74
2023/03/09 05:54:32;;;;;;;20.92;9.32;;;;;;;-0.47;100.00;99638.78;5052113;28;20042;-75
2023/03/09 05:56:58;;;;;;;21.05;8.75;;;;;;;-0.48;100.00;99635.31;5035214;28;20624;-74
2023/03/09 05:59:23;;;;;;;24.45;9.15;;;;;;;-0.46;100.00;99649.19;5051415;28;20044;-75
2023/03/09 06:01:49;;;;;;;22.08;9.25;;;;;;;-0.46;100.00;99641.38;5038125;28;20538;-74
2023/03/09 06:04:15;;;;;;;26.67;9.95;;;;;;;-0.44;100.00;99644.78;5052625;28;20402;-74
2023/03/09 06:06:40;;;;;;;23.33;9.40;;;;;;;-0.45;100.00;99640.47;5050556;28;20106;-74
2023/03/09 06:09:06;;;;;;;25.10;9.48;;;;;;;-0.44;100.00;99634.38;5051884;28;20703;-74
2023/03/09 06:11:31;;;;;;;23.10;9.23;;;;;;;-0.44;100.00;99638.75;5031882;28;20480;-74
2023/03/09 06:13:57;;;;;;;22.45;9.35;;;;;;;-0.45;100.00;99637.88;5033960;28;20067;-74
2023/03/09 06:16:24;;;;;;;21.73;8.52;;;;;;;-0.45;100.00;99652.63;5050194;28;20120;-74
2023/03/09 06:18:49;;;;;;;23.23;8.68;;;;;;;-0.45;100.00;99652.63;5052381;28;20036;-74
2023/03/09 06:21:15;;;;;;;21.90;8.95;;;;;;;-0.44;100.00;99656.97;5032632;28;20633;-74
2023/03/09 06:23:41;;;;;;;22.02;8.90;;;;;;;-0.46;100.00;99675.19;5032191;28;20611;-74
2023/03/09 06:26:09;;;;;;;20.80;9.23;;;;;;;-0.46;100.00;99679.50;5040618;28;20039;-74
2023/03/09 06:28:35;;;;;;;21.02;8.75;;;;;;;-0.48;100.00;99666.53;5015399;28;20485;-74
2023/03/09 06:31:12;;;;;;;19.65;8.45;;;;;;;-0.48;100.00;99663.94;5031874;28;20044;-74
2023/03/09 06:33:39;;;;;;;22.85;8.80;;;;;;;-0.48;100.00;99663.09;5048935;28;20132;-74
2023/03/09 06:36:05;;;;;;;23.17;9.10;;;;;;;-0.49;100.00;99669.19;5055340;28;20070;-74
2023/03/09 06:38:31;;;;;;;21.67;9.02;;;;;;;-0.51;100.00;99669.19;5038863;28;20110;-74
2023/03/09 06:40:57;;;;;;;20.75;9.20;;;;;;;-0.51;100.00;99669.19;5052535;28;20035;-74
2023/03/09 06:43:23;;;;;;;23.55;9.95;;;;;;;-0.53;100.00;99677.91;5049510;28;20043;-74
2023/03/09 06:45:48;;;;;;;18.58;8.35;;;;;;;-0.55;100.00;99684.00;5031070;28;20027;-74
2023/03/09 06:48:16;;;;;;;20.92;8.88;;;;;;;-0.54;100.00;99679.69;5035901;28;20640;-74
2023/03/09 06:50:43;;;;;;;21.92;8.68;;;;;;;-0.55;100.00;99693.53;5051990;28;20028;-74
2023/03/09 06:53:09;;;;;;;21.77;9.07;;;;;;;-0.58;100.00;99689.28;5036312;28;20545;-74
2023/03/09 06:55:36;;;;;;;21.65;8.45;;;;;;;-0.57;100.00;99690.13;5049942;28;21282;-74
2023/03/09 06:58:02;;;;;;;20.05;8.73;;;;;;;-0.56;100.00;99690.09;5033887;28;20044;-74
2023/03/09 07:00:27;;;;;;;23.50;9.13;;;;;;;-0.55;100.00;99689.22;5054910;28;20037;-74
2023/03/09 07:02:52;;;;;;;21.38;9.20;;;;;;;-0.53;100.00;99704.78;5054882;28;20496;-74
2023/03/09 07:05:18;;;;;;;23.40;9.40;;;;;;;-0.51;100.00;99709.94;5052578;28;20037;-74
2023/03/09 07:07:44;;;;;;;19.08;8.02;;;;;;;-0.51;100.00;99710.81;5046528;28;20032;-74
2023/03/09 07:10:11;;;;;;;23.85;9.38;;;;;;;-0.50;100.00;99709.91;5038892;28;20479;-74
2023/03/09 07:12:36;;;;;;;19.67;8.45;;;;;;;-0.48;100.00;99715.94;5050555;28;20032;-74
2023/03/09 07:15:03;;;;;;;21.00;9.23;;;;;;;-0.47;100.00;99715.09;5047717;28;20039;-74
2023/03/09 07:17:29;;;;;;;22.20;9.15;;;;;;;-0.44;100.00;99717.63;5018790;28;20048;-74
2023/03/09 07:19:56;;;;;;;19.08;8.93;;;;;;;-0.39;100.00;99708.88;5045563;28;20028;-74
2023/03/09 07:22:22;;;;;;;20.98;8.85;;;;;;;-0.38;100.00;99714.03;5027388;28;20275;-74
2023/03/09 07:24:48;;;;;;;18.45;8.40;;;;;;;-0.35;100.00;99721.78;5041166;28;21144;-74
2023/03/09 07:27:13;;;;;;;20.80;8.90;;;;;;;-0.28;100.00;99732.94;5037973;28;20033;-74
2023/03/09 07:29:40;;;;;;;18.58;8.85;;;;;;;-0.24;100.00;99741.53;5050269;28;20052;-74
2023/03/09 07:32:06;;;;;;;20.15;8.90;;;;;;;-0.18;100.00;99738.81;5047030;28;20056;-74
2023/03/09 07:34:32;;;;;;;19.10;8.90;;;;;;;-0.11;100.00;99747.38;5051863;28;20899;-74
2023/03/09 07:36:59;;;;;;;19.52;9.05;;;;;;;-0.08;100.00;99749.91;5053252;28;20032;-75
2023/03/09 07:39:24;;;;;;;19.38;9.20;;;;;;;-0.05;100.00;99755.09;5037096;28;20032;-74
2023/03/09 07:41:50;;;;;;;20.60;9.20;;;;;;;-0.03;100.00;99755.91;5029884;28;20047;-74
2023/03/09 07:44:15;;;;;;;22.40;8.77;;;;;;;-0.01;100.00;99754.13;5053227;28;20064;-74
2023/03/09 07:46:41;;;;;;;18.98;8.90;;;;;;;0.05;100.00;99767.00;5033262;28;20044;-75
2023/03/09 07:49:07;;;;;;;18.55;8.93;;;;;;;0.10;100.00;99775.59;5035047;28;20041;-74
2023/03/09 07:51:33;;;;;;;16.45;8.30;;;;;;;0.12;100.00;99783.38;5054170;28;20040;-75
2023/03/09 07:53:58;;;;;;;17.33;8.43;;;;;;;0.17;100.00;99793.72;5033877;28;20079;-74
2023/03/09 07:56:24;;;;;;;17.90;8.18;;;;;;;0.22;100.00;99799.69;5044360;28;20127;-74
2023/03/09 07:58:51;;;;;;;17.48;8.23;;;;;;;0.24;100.00;99810.94;5047375;28;20123;-75
2023/03/09 08:01:18;;;;;;;18.75;7.97;;;;;;;0.28;100.00;99811.72;5053551;28;20455;-75
2023/03/09 08:03:47;;;;;;;20.30;8.23;;;;;;;0.32;100.00;99813.41;5031112;28;20032;-74
2023/03/09 08:06:13;;;;;;;22.83;9.07;;;;;;;0.38;100.00;99827.13;5022243;28;22238;-74
2023/03/09 08:08:39;;;;;;;17.52;7.80;;;;;;;0.42;100.00;99827.09;5036045;28;20597;-75
2023/03/09 08:11:05;;;;;;;17.70;8.23;;;;;;;0.42;100.00;99833.13;5055860;28;20136;-74
2023/03/09 08:13:31;;;;;;;19.00;8.40;;;;;;;0.43;100.00;99834.84;5055742;28;20178;-75
2023/03/09 08:16:00;;;;;;;17.27;7.63;;;;;;;0.44;100.00;99838.34;5051812;28;20035;-76
2023/03/09 08:18:25;;;;;;;19.73;8.57;;;;;;;0.47;100.00;99840.84;5047932;28;20042;-76
2023/03/09 08:20:51;;;;;;;15.73;8.43;;;;;;;0.50;100.00;99843.41;5055254;28;20039;-75
2023/03/09 08:23:18;;;;;;;18.73;7.90;;;;;;;0.53;100.00;99835.53;5030804;28;20036;-75
2023/03/09 08:25:44;;;;;;;15.25;7.65;;;;;;;0.58;100.00;99832.81;5058775;28;20036;-75
2023/03/09 08:28:11;;;;;;;15.38;7.60;;;;;;;0.58;100.00;99841.50;5030928;28;20923;-75
2023/03/09 08:30:38;;;;;;;17.95;8.07;;;;;;;0.59;100.00;99848.44;5038511;28;20041;-75
2023/03/09 08:33:04;;;;;;;14.48;7.20;;;;;;;0.59;100.00;99850.19;5035226;28;20044;-75
2023/03/09 08:35:32;;;;;;;13.95;6.82;;;;;;;0.59;100.00;99855.41;5019801;28;20037;-74
2023/03/09 08:37:59;;;;;;;14.43;7.10;;;;;;;0.60;100.00;99855.34;5044928;28;20624;-74
2023/03/09 08:40:25;;;;;;;16.02;8.07;;;;;;;0.60;100.00;99852.75;5032070;28;20076;-75
2023/03/09 08:42:51;;;;;;;17.13;8.13;;;;;;;0.64;100.00;99844.00;5033621;28;20174;-75
2023/03/09 08:45:17;;;;;;;13.55;6.40;;;;;;;0.65;100.00;99843.09;5033798;28;20538;-75
2023/03/09 08:47:42;;;;;;;15.05;7.72;;;;;;;0.68;100.00;99850.00;5036060;28;20036;-75
2023/03/09 08:50:09;;;;;;;15.45;7.40;;;;;;;0.66;100.00;99852.63;5033401;28;20047;-75
2023/03/09 08:52:42;;;;;;;13.98;7.13;;;;;;;0.66;100.00;99863.06;5033060;28;20036;-75
2023/03/09 08:55:08;;;;;;;16.90;6.97;;;;;;;0.67;100.00;99862.16;5021441;28;20076;-74
2023/03/09 08:57:34;;;;;;;13.05;7.13;;;;;;;0.69;100.00;99856.09;5017161;28;20031;-74
2023/03/09 09:00:00;;;;;;;14.52;7.38;;;;;;;0.71;100.00;99852.53;5040538;28;20486;-74
2023/03/09 09:02:25;;;;;;;14.77;7.28;;;;;;;0.73;100.00;99845.56;5033552;28;20094;-75
2023/03/09 09:04:51;;;;;;;13.32;6.63;;;;;;;0.77;100.00;99843.75;5031479;28;20518;-74
2023/03/09 09:07:17;;;;;;;14.35;6.45;;;;;;;0.80;100.00;99849.75;5035188;28;20091;-75
2023/03/09 09:09:43;;;;;;;14.50;6.80;;;;;;;0.86;100.00;99863.56;5030927;28;20032;-75
2023/03/09 09:12:10;;;;;;;14.75;6.65;;;;;;;0.90;100.00;99876.47;5033977;28;20033;-75
2023/03/09 09:14:39;;;;;;;13.93;7.38;;;;;;;0.97;100.00;99869.38;5016454;28;20041;-75
2023/03/09 09:17:08;;;;;;;11.82;5.85;;;;;;;1.02;100.00;99864.06;5031481;28;20083;-74
2023/03/09 09:19:35;;;;;;;13.77;6.57;;;;;;;1.08;100.00;99849.16;5029961;28;20535;-75
2023/03/09 09:22:00;;;;;;;15.00;6.85;;;;;;;1.15;100.00;99843.81;5030414;28;20037;-74
2023/03/09 09:24:35;;;;;;;13.25;6.90;;;;;;;1.22;100.00;99861.88;5025815;28;20447;-75
2023/03/09 09:27:05;;;;;;;13.20;6.43;;;;;;;1.30;100.00;99879.13;5029062;28;20040;-74
2023/03/09 09:29:32;;;;;;;12.93;6.43;;;;;;;1.35;100.00;99883.34;5025098;28;20025;-74
2023/03/09 09:31:58;;;;;;;16.40;6.72;;;;;;;1.43;100.00;99888.38;5009295;28;20500;-74
2023/03/09 09:34:24;;;;;;;18.60;6.97;;;;;;;1.49;100.00;99882.16;5026683;28;20048;-75
2023/03/09 09:36:50;;;;;;;11.98;6.25;;;;;;;1.55;100.00;99878.53;5011850;28;20104;-75
2023/03/09 09:39:16;;;;;;;12.98;6.78;;;;;;;1.61;100.00;99874.06;5029921;28;20474;-75
2023/03/09 09:41:57;;;;;;;13.00;6.38;;;;;;;1.67;100.00;99867.81;5014283;28;20809;-75
2023/03/09 09:44:27;;;;;;;12.35;6.50;;;;;;;1.69;100.00;99876.47;5036150;28;20028;-75
2023/03/09 09:46:54;;;;;;;12.57;6.18;;;;;;;1.75;100.00;99884.13;5035951;28;20144;-75
2023/03/09 09:49:23;;;;;;;12.07;6.20;;;;;;;1.74;100.00;99885.03;5035223;28;20739;-75
2023/03/09 09:52:22;;;;;;;10.63;5.90;;;;;;;1.75;100.00;99881.53;5005780;28;20053;-75
2023/03/09 09:54:57;;;;;;;11.77;6.28;;;;;;;1.83;100.00;99880.47;5012296;28;20045;-75
2023/03/09 09:57:39;;;;;;;9.63;5.22;;;;;;;1.88;100.00;99884.72;5022628;28;20484;-75
2023/03/09 10:00:12;;;;;;;10.90;5.25;;;;;;;1.95;100.00;99877.56;5035447;28;20802;-75
2023/03/09 10:02:40;;;;;;;13.68;5.97;;;;;;;2.01;100.00;99885.25;5020062;28;20126;-74
2023/03/09 10:05:15;;;;;;;11.57;5.55;;;;;;;2.04;100.00;99886.94;5036632;28;20043;-75
2023/03/09 10:07:41;;;;;;;9.73;5.80;;;;;;;2.03;100.00;99880.84;5022285;28;20033;-75
2023/03/09 10:10:20;;;;;;;10.30;5.40;;;;;;;2.02;100.00;99888.75;5033935;28;20511;-75
2023/03/09 10:12:46;;;;;;;12.88;5.43;;;;;;;2.06;100.00;99886.91;5032455;28;20488;-75
2023/03/09 10:15:14;;;;;;;10.32;5.68;;;;;;;2.13;100.00;99897.13;5036894;28;20093;-75
2023/03/09 10:17:45;;;;;;;8.77;5.30;;;;;;;2.19;100.00;99896.13;5031868;28;20603;-75
2023/03/09 10:20:20;;;;;;;9.38;5.35;;;;;;;2.24;100.00;99904.69;5049786;28;21055;-75
2023/03/09 10:22:49;;;;;;;11.50;6.03;;;;;;;2.26;100.00;99902.91;5044817;28;20032;-75
2023/03/09 10:25:19;;;;;;;9.63;5.60;;;;;;;2.37;100.00;99899.16;5005708;28;20487;-74
2023/03/09 10:28:10;;;;;;;8.68;5.20;;;;;;;2.46;100.00;99898.06;5012174;28;20164;-75
2023/03/09 10:30:56;;;;;;;9.63;5.50;;;;;;;2.52;100.00;99890.03;5030584;28;20041;-75
2023/03/09 10:33:45;;;;;;;8.88;5.13;;;;;;;2.59;100.00;99891.59;5041118;28;20067;-75
2023/03/09 10:36:39;;;;;;;9.15;5.15;;;;;;;2.59;100.00;99894.22;5033327;28;20101;-75
2023/03/09 10:39:14;;;;;;;6.93;4.43;;;;;;;2.62;100.00;99894.09;5018367;28;21825;-75
2023/03/09 10:41:41;;;;;;;9.85;4.45;;;;;;;2.61;100.00;99883.72;5025531;28;21486;-75
2023/03/09 10:44:13;;;;;;;8.20;4.63;;;;;;;2.58;100.00;99872.44;5027826;28;20167;-74
2023/03/09 10:46:59;;;;;;;9.07;5.15;;;;;;;2.58;100.00;99875.03;5028590;28;20029;-73
2023/03/09 10:49:26;;;;;;;9.25;5.18;;;;;;;2.56;100.00;99874.22;5033706;28;20166;-74
2023/03/09 10:52:04;;;;;;;8.50;4.72;;;;;;;2.52;100.00;99888.31;5002249;28;20029;-75
2023/03/09 10:54:38;;;;;;;11.52;5.32;;;;;;;2.46;100.00;99898.91;5041804;28;20122;-75
2023/03/09 10:57:24;;;;;;;9.60;5.35;;;;;;;2.46;100.00;99904.16;5027096;28;20103;-75
2023/03/09 10:59:58;;;;;;;10.20;5.75;;;;;;;2.53;100.00;99908.31;5029168;28;20033;-75
2023/03/09 11:02:30;;;;;;;10.10;5.40;;;;;;;2.54;100.00;99916.97;5027533;28;20040;-75
2023/03/09 11:04:56;;;;;;;9.02;5.28;;;;;;;2.56;100.00;99925.66;5032810;28;20611;-75
2023/03/09 11:07:26;;;;;;;8.05;4.75;;;;;;;2.63;100.00;99921.13;5029076;28;20733;-75
2023/03/09 11:09:55;;;;;;;8.15;4.95;;;;;;;2.71;100.00;99925.25;5027687;28;21183;-75
2023/03/09 11:12:20;;;;;;;8.95;4.65;;;;;;;2.75;100.00;99906.84;5024215;28;20134;-75
2023/03/09 11:14:54;;;;;;;10.80;5.88;;;;;;;2.79;100.00;99906.72;5030777;28;21378;-75
2023/03/09 11:17:32;;;;;;;10.32;5.80;;;;;;;2.85;100.00;99903.09;5029240;28;20032;-75
2023/03/09 11:20:23;;;;;;;7.97;4.85;;;;;;;2.91;100.00;99907.28;5019923;28;20809;-74
2023/03/09 11:22:55;;;;;;;7.35;4.22;;;;;;;2.89;100.00;99896.84;5028096;28;20045;-75
2023/03/09 11:25:34;;;;;;;7.38;4.75;;;;;;;2.87;100.00;99900.44;5029545;28;20455;-76